createdAt,value
2023-01-10T00:00:45.084Z,48.92
2023-01-10T00:03:33.831Z,49.08
2023-01-10T00:06:22.556Z,49.88
2023-01-10T00:09:11.794Z,52.33
2023-01-10T00:12:17.809Z,54.87
2023-01-10T00:15:07.698Z,53.05
2023-01-10T00:17:57.901Z,58.60
2023-01-10T00:20:46.979Z,60.35
2023-01-10T00:23:36.852Z,57.90
2023-01-10T00:26:25.817Z,65.20
2023-01-10T00:29:16.156Z,63.78
2023-01-10T00:32:04.977Z,70.40
2023-01-10T00:34:57.883Z,65.83
2023-01-10T00:37:46.621Z,67.27
2023-01-10T00:40:35.502Z,72.60
2023-01-10T00:43:42.176Z,72.43
2023-01-10T00:46:31.035Z,61.77
2023-01-10T00:49:19.977Z,72.23
2023-01-10T00:52:10.111Z,64.87
2023-01-10T00:54:58.752Z,62.20
2023-01-10T00:57:47.659Z,59.73
2023-01-10T01:00:36.379Z,59.57
2023-01-10T01:03:25.233Z,63.07
2023-01-10T01:06:13.932Z,63.97
2023-01-10T01:09:05.312Z,61.90
2023-01-10T01:11:54.000Z,63.33
2023-01-10T01:14:42.598Z,66.90
2023-01-10T01:17:31.296Z,71.83
2023-01-10T01:20:21.073Z,65.17
2023-01-10T01:23:09.986Z,74.33
2023-01-10T01:26:00.317Z,73.03
2023-01-10T01:28:49.069Z,71.37
2023-01-10T01:31:38.178Z,74.53
2023-01-10T01:34:27.052Z,68.13
2023-01-10T01:37:16.470Z,71.93
2023-01-10T01:40:06.128Z,71.83
2023-01-10T01:42:56.994Z,74.27
2023-01-10T01:45:48.726Z,71.97
2023-01-10T01:48:39.938Z,71.63
2023-01-10T01:51:32.031Z,71.87
2023-01-10T01:54:21.279Z,72.93
2023-01-10T01:57:14.568Z,70.17
2023-01-10T02:00:06.701Z,73.70
2023-01-10T02:03:03.328Z,67.53
2023-01-10T02:05:52.495Z,77.97
2023-01-10T02:08:50.713Z,71.77
2023-01-10T02:11:39.441Z,77.03
2023-01-10T02:14:28.248Z,73.93
2023-01-10T02:17:18.957Z,77.93
2023-01-10T02:20:10.351Z,75.93
2023-01-10T02:23:29.657Z,79.60
2023-01-10T02:26:47.105Z,79.67
2023-01-10T02:30:02.129Z,79.40
2023-01-10T02:33:05.025Z,78.38
2023-01-10T02:36:17.245Z,78.67
2023-01-10T02:39:13.108Z,76.63
2023-01-10T02:42:07.674Z,70.60
2023-01-10T02:45:01.573Z,74.13
2023-01-10T02:47:52.090Z,79.37
2023-01-10T02:50:58.201Z,76.00
2023-01-10T02:53:50.724Z,79.27
2023-01-10T02:57:16.406Z,74.30
2023-01-10T03:00:16.434Z,82.20
2023-01-10T03:03:16.608Z,78.40
2023-01-10T03:06:16.742Z,77.18
2023-01-10T03:09:15.175Z,73.90
2023-01-10T03:12:12.942Z,69.50
2023-01-10T03:15:03.610Z,75.77
2023-01-10T03:17:58.376Z,73.83
2023-01-10T03:20:50.742Z,70.15
2023-01-10T03:23:41.660Z,68.43
2023-01-10T03:26:37.089Z,68.23
2023-01-10T03:29:31.720Z,65.97
2023-01-10T03:32:25.145Z,67.37
2023-01-10T03:35:15.499Z,73.57
2023-01-10T03:38:12.061Z,67.27
2023-01-10T03:41:08.720Z,65.23
2023-01-10T03:44:22.898Z,64.60
2023-01-10T03:47:16.889Z,66.47
2023-01-10T03:50:09.813Z,71.87
2023-01-10T03:52:59.352Z,62.70
2023-01-10T03:55:50.174Z,60.83
2023-01-10T03:58:38.909Z,63.63
2023-01-10T04:01:27.914Z,62.43
2023-01-10T04:04:16.980Z,66.80
2023-01-10T04:07:05.807Z,66.30
2023-01-10T04:09:54.555Z,56.63
2023-01-10T04:12:44.736Z,66.00
2023-01-10T04:15:33.945Z,61.07
2023-01-10T04:18:22.718Z,62.33
2023-01-10T04:21:11.580Z,70.73
2023-01-10T04:24:00.283Z,70.17
2023-01-10T04:26:48.995Z,60.40
2023-01-10T04:29:39.356Z,65.77
2023-01-10T04:32:28.179Z,67.87
2023-01-10T04:35:17.283Z,64.40
2023-01-10T04:38:06.105Z,66.10
2023-01-10T04:40:55.852Z,65.73
2023-01-10T04:43:44.705Z,62.13
2023-01-10T04:46:35.093Z,67.27
2023-01-10T04:49:24.117Z,62.77
2023-01-10T04:52:13.137Z,66.87
2023-01-10T04:55:01.877Z,67.13
2023-01-10T04:57:50.697Z,70.20
2023-01-10T05:00:39.673Z,69.00
2023-01-10T05:03:30.071Z,70.50
2023-01-10T05:06:19.391Z,68.45
2023-01-10T05:09:08.264Z,80.18
2023-01-10T05:11:57.128Z,78.53
2023-01-10T05:14:46.152Z,77.55
2023-01-10T05:17:34.858Z,70.33
2023-01-10T05:20:25.046Z,68.70
2023-01-10T05:23:13.785Z,74.35
2023-01-10T05:26:07.447Z,69.33
2023-01-10T05:28:56.226Z,66.13
2023-01-10T05:31:45.268Z,65.60
2023-01-10T05:34:34.551Z,61.05
2023-01-10T05:37:24.906Z,64.43
2023-01-10T05:40:14.223Z,64.37
2023-01-10T05:43:03.271Z,59.67
2023-01-10T05:45:52.449Z,59.70
2023-01-10T05:48:41.375Z,57.45
2023-01-10T05:51:30.446Z,64.43
2023-01-10T05:54:21.149Z,61.73
2023-01-10T05:57:09.958Z,63.10
2023-01-10T05:59:58.771Z,66.18
2023-01-10T06:02:47.782Z,69.73
2023-01-10T06:05:36.828Z,61.22
2023-01-10T06:08:26.325Z,68.43
2023-01-10T06:11:16.540Z,66.13
2023-01-10T06:14:05.437Z,67.65
2023-01-10T06:16:54.326Z,68.07
2023-01-10T06:19:43.279Z,75.13
2023-01-10T06:22:32.204Z,67.77
2023-01-10T06:25:21.540Z,62.87
2023-01-10T06:28:20.612Z,69.30
2023-01-10T06:31:09.450Z,64.50
2023-01-10T06:33:58.265Z,67.37
2023-01-10T06:36:47.174Z,62.87
2023-01-10T06:39:36.116Z,72.20
2023-01-10T06:42:25.224Z,65.32
2023-01-10T06:45:15.348Z,72.43
2023-01-10T06:48:04.563Z,73.60
2023-01-10T06:50:53.443Z,68.20
2023-01-10T06:53:42.554Z,77.13
2023-01-10T06:56:31.567Z,76.37
2023-01-10T06:59:20.492Z,79.10
2023-01-10T07:02:13.032Z,77.27
2023-01-10T07:05:01.971Z,76.90
2023-01-10T07:07:50.817Z,85.50
2023-01-10T07:10:42.208Z,85.77
2023-01-10T07:13:31.110Z,82.53
2023-01-10T07:16:19.770Z,83.97
2023-01-10T07:19:09.882Z,67.70
2023-01-10T07:21:58.639Z,67.70
2023-01-10T07:24:47.326Z,67.73
2023-01-10T07:27:36.128Z,62.93
2023-01-10T07:30:26.120Z,63.40
2023-01-10T07:33:14.862Z,61.53
2023-01-10T07:36:05.290Z,62.93
2023-01-10T07:38:54.096Z,61.90
2023-01-10T07:41:42.739Z,67.10
2023-01-10T07:44:32.418Z,69.78
2023-01-10T07:47:27.145Z,62.97
2023-01-10T07:50:18.168Z,69.77
2023-01-10T07:53:16.981Z,67.23
2023-01-10T07:56:10.303Z,60.40
2023-01-10T07:58:59.071Z,71.87
2023-01-10T08:01:48.737Z,66.07
2023-01-10T08:04:38.270Z,67.47
2023-01-10T08:07:27.083Z,67.43
2023-01-10T08:10:18.296Z,66.70
2023-01-10T08:13:18.562Z,63.60
2023-01-10T08:16:09.137Z,71.10
2023-01-10T08:18:57.786Z,66.97
2023-01-10T08:21:46.472Z,73.53
2023-01-10T08:24:35.197Z,71.63
2023-01-10T08:27:25.276Z,70.88
2023-01-10T08:30:15.007Z,68.90
2023-01-10T08:33:04.681Z,68.23
2023-01-10T08:35:53.501Z,68.03
2023-01-10T08:38:42.129Z,65.50
2023-01-10T08:41:31.433Z,74.15
2023-01-10T08:44:21.477Z,59.50
2023-01-10T08:47:10.069Z,60.63
2023-01-10T08:49:58.745Z,58.70
2023-01-10T08:52:47.523Z,57.87
2023-01-10T08:55:36.448Z,53.97
2023-01-10T08:58:25.072Z,53.77
2023-01-10T09:01:15.368Z,62.80
2023-01-10T09:04:03.957Z,64.87
2023-01-10T09:06:52.573Z,59.57
2023-01-10T09:09:41.380Z,60.10
2023-01-10T09:12:47.870Z,52.27
2023-01-10T09:15:38.516Z,57.63
2023-01-10T09:18:28.602Z,53.17
2023-01-10T09:21:17.256Z,52.30
2023-01-10T09:24:07.361Z,58.58
2023-01-10T09:26:56.012Z,57.33
2023-01-10T09:29:44.675Z,57.00
2023-01-10T09:32:33.378Z,55.70
2023-01-10T09:35:23.873Z,56.33
2023-01-10T09:38:16.170Z,57.87
2023-01-10T09:41:18.851Z,63.58
2023-01-10T09:44:21.704Z,57.60
2023-01-10T09:47:22.864Z,58.03
2023-01-10T09:50:22.995Z,53.10
2023-01-10T09:53:19.037Z,56.07
2023-01-10T09:56:09.873Z,60.00
2023-01-10T09:59:00.352Z,60.77
2023-01-10T10:01:50.218Z,57.92
2023-01-10T10:04:41.623Z,55.45
2023-01-10T10:07:31.030Z,54.73
2023-01-10T10:10:28.659Z,59.88
2023-01-10T10:13:27.850Z,59.93
2023-01-10T10:16:28.091Z,54.38
2023-01-10T10:19:28.212Z,58.90
2023-01-10T10:22:25.259Z,55.43
2023-01-10T10:25:31.441Z,59.33
2023-01-10T10:28:53.869Z,55.83
2023-01-10T10:32:05.415Z,57.75
2023-01-10T10:34:59.596Z,57.20
2023-01-10T10:37:51.923Z,51.33
2023-01-10T10:40:45.897Z,55.97
2023-01-10T10:43:37.188Z,55.72
2023-01-10T10:46:26.570Z,54.53
2023-01-10T10:49:19.755Z,56.38
2023-01-10T10:52:18.924Z,56.65
2023-01-10T10:55:13.801Z,51.63
2023-01-10T10:58:04.644Z,50.90
2023-01-10T11:00:54.712Z,55.45
2023-01-10T11:03:48.476Z,50.55
2023-01-10T11:06:38.681Z,54.05
2023-01-10T11:09:31.163Z,60.55
2023-01-10T11:12:22.359Z,56.33
2023-01-10T11:15:12.831Z,55.53
2023-01-10T11:18:07.059Z,59.25
2023-01-10T11:20:59.060Z,53.10
2023-01-10T11:23:53.541Z,53.63
2023-01-10T11:26:42.341Z,51.55
2023-01-10T11:29:39.558Z,52.70
2023-01-10T11:32:35.983Z,52.53
2023-01-10T11:35:28.323Z,51.57
2023-01-10T11:38:24.653Z,51.37
2023-01-10T11:41:27.343Z,50.72
2023-01-10T11:44:27.947Z,52.23
2023-01-10T11:47:21.020Z,51.17
2023-01-10T11:50:12.765Z,48.23
2023-01-10T11:53:02.021Z,42.03
2023-01-10T11:55:51.421Z,47.50
2023-01-10T11:58:41.521Z,47.10
2023-01-10T12:01:36.592Z,47.90
2023-01-10T12:04:27.330Z,52.03
2023-01-10T12:07:19.393Z,50.15
2023-01-10T12:10:21.172Z,47.55
2023-01-10T12:13:16.553Z,52.42
2023-01-10T12:16:19.838Z,46.37
2023-01-10T12:19:17.172Z,46.00
2023-01-10T12:22:08.949Z,45.17
2023-01-10T12:25:01.436Z,42.03
2023-01-10T12:27:50.525Z,45.07
2023-01-10T12:30:43.697Z,42.40
2023-01-10T12:33:36.104Z,39.90
2023-01-10T12:36:44.750Z,32.90
2023-01-10T12:39:35.887Z,35.27
2023-01-10T12:43:03.254Z,36.88
2023-01-10T12:45:56.097Z,37.67
2023-01-10T12:48:50.914Z,39.40
2023-01-10T12:51:40.726Z,41.47
2023-01-10T12:54:31.973Z,36.95
2023-01-10T12:57:30.039Z,37.07
2023-01-10T13:00:25.013Z,37.00
2023-01-10T13:03:16.539Z,39.30
2023-01-10T13:06:05.488Z,39.47
2023-01-10T13:08:55.429Z,37.70
2023-01-10T13:11:49.601Z,40.33
2023-01-10T13:14:45.246Z,43.22
2023-01-10T13:17:40.460Z,39.13
2023-01-10T13:20:37.154Z,37.03
2023-01-10T13:23:31.263Z,37.97
2023-01-10T13:26:20.903Z,38.92
2023-01-10T13:29:13.468Z,42.47
2023-01-10T13:32:03.972Z,40.90
2023-01-10T13:34:53.451Z,42.10
2023-01-10T13:37:45.760Z,37.80
2023-01-10T13:40:34.462Z,39.63
2023-01-10T13:43:34.582Z,41.57
2023-01-10T13:46:43.748Z,43.55
2023-01-10T13:49:51.585Z,39.60
2023-01-10T13:52:40.371Z,39.17
2023-01-10T13:55:36.674Z,46.13
2023-01-10T13:59:02.103Z,37.80
2023-01-10T14:02:16.199Z,40.13
2023-01-10T14:05:11.205Z,41.67
2023-01-10T14:08:00.675Z,33.33
2023-01-10T14:11:06.069Z,40.00
2023-01-10T14:13:57.607Z,43.77
2023-01-10T14:16:49.859Z,39.20
2023-01-10T14:19:39.491Z,41.80
2023-01-10T14:22:32.258Z,41.72
2023-01-10T14:25:22.772Z,42.28
2023-01-10T14:28:25.215Z,45.22
2023-01-10T14:31:21.082Z,38.33
2023-01-10T14:34:15.253Z,39.15
2023-01-10T14:37:10.978Z,42.70
2023-01-10T14:40:01.395Z,39.47
2023-01-10T14:42:51.267Z,46.60
2023-01-10T14:45:44.735Z,39.23
2023-01-10T14:48:34.930Z,39.10
2023-01-10T14:51:26.985Z,36.13
2023-01-10T14:54:17.815Z,39.90
2023-01-10T14:57:19.072Z,39.45
2023-01-10T15:00:10.644Z,34.35
2023-01-10T15:03:01.851Z,37.10
2023-01-10T15:05:52.847Z,34.20
2023-01-10T15:08:41.508Z,32.70
2023-01-10T15:11:33.044Z,33.00
2023-01-10T15:14:27.108Z,29.08
2023-01-10T15:17:20.550Z,35.47
2023-01-10T15:20:15.076Z,32.33
2023-01-10T15:23:03.936Z,28.73
2023-01-10T15:25:58.584Z,29.47
2023-01-10T15:29:00.918Z,30.45
2023-01-10T15:31:51.588Z,27.47
2023-01-10T15:34:42.388Z,28.83
2023-01-10T15:37:36.073Z,30.03
2023-01-10T15:40:29.668Z,31.73
2023-01-10T15:43:26.001Z,31.02
2023-01-10T15:46:20.345Z,31.67
2023-01-10T15:49:25.342Z,29.42
2023-01-10T15:52:22.921Z,32.88
2023-01-10T15:55:36.208Z,35.03
2023-01-10T15:58:29.371Z,37.23
2023-01-10T16:01:18.948Z,35.03
2023-01-10T16:04:15.187Z,38.92
2023-01-10T16:07:13.409Z,40.92
2023-01-10T16:10:06.082Z,34.07
2023-01-10T16:13:27.499Z,36.60
2023-01-10T16:16:20.053Z,37.37
2023-01-10T16:19:09.004Z,36.67
2023-01-10T16:22:00.176Z,35.57
2023-01-10T16:24:52.569Z,39.40
2023-01-10T16:27:41.410Z,39.13
2023-01-10T16:30:31.662Z,35.27
2023-01-10T16:33:23.552Z,40.63
2023-01-10T16:36:17.120Z,36.50
2023-01-10T16:39:09.462Z,37.20
2023-01-10T16:42:17.125Z,39.43
2023-01-10T16:45:06.475Z,35.27
2023-01-10T16:47:55.160Z,39.23
2023-01-10T16:50:44.530Z,41.23
2023-01-10T16:53:33.287Z,41.10
2023-01-10T16:56:23.934Z,39.27
2023-01-10T16:59:14.893Z,39.80
2023-01-10T17:02:03.776Z,42.50
2023-01-10T17:04:52.719Z,35.47
2023-01-10T17:07:41.523Z,38.03
2023-01-10T17:10:31.298Z,40.80
2023-01-10T17:13:25.767Z,42.83
2023-01-10T17:16:19.409Z,41.20
2023-01-10T17:19:09.779Z,42.93
2023-01-10T17:21:58.654Z,40.77
2023-01-10T17:24:47.508Z,41.23
2023-01-10T17:27:36.185Z,40.27
2023-01-10T17:30:24.763Z,39.00
2023-01-10T17:33:15.345Z,40.83
2023-01-10T17:36:05.011Z,43.27
2023-01-10T17:38:53.713Z,39.17
2023-01-10T17:41:42.392Z,40.47
2023-01-10T17:44:51.680Z,39.87
2023-01-10T17:47:40.513Z,42.33
2023-01-10T17:50:30.845Z,43.83
2023-01-10T17:53:19.724Z,40.83
2023-01-10T17:56:09.148Z,39.13
2023-01-10T17:58:57.942Z,36.60
2023-01-10T18:01:46.737Z,37.70
2023-01-10T18:04:35.425Z,45.07
2023-01-10T18:07:25.602Z,40.60
2023-01-10T18:10:14.585Z,44.87
2023-01-10T18:13:05.849Z,40.80
2023-01-10T18:15:55.227Z,38.47
2023-01-10T18:18:44.066Z,37.23
2023-01-10T18:21:32.891Z,34.90
2023-01-10T18:24:22.931Z,39.63
2023-01-10T18:27:11.573Z,37.50
2023-01-10T18:30:00.352Z,38.77
2023-01-10T18:32:49.408Z,39.50
2023-01-10T18:35:40.042Z,36.47
2023-01-10T18:38:32.780Z,38.03
2023-01-10T18:41:23.010Z,33.83
2023-01-10T18:44:11.758Z,35.17
2023-01-10T18:47:00.759Z,34.63
2023-01-10T18:49:49.531Z,34.47
2023-01-10T18:52:38.183Z,39.03
2023-01-10T18:55:26.952Z,35.23
2023-01-10T18:58:17.004Z,35.03
2023-01-10T19:01:09.716Z,41.67
2023-01-10T19:03:59.674Z,42.00
2023-01-10T19:06:48.566Z,36.50
2023-01-10T19:09:40.250Z,35.73
2023-01-10T19:12:34.024Z,33.23
2023-01-10T19:15:30.652Z,33.17
2023-01-10T19:18:20.413Z,32.63
2023-01-10T19:21:18.409Z,33.10
2023-01-10T19:24:12.532Z,33.90
2023-01-10T19:27:04.327Z,33.10
2023-01-10T19:29:55.637Z,36.70
2023-01-10T19:32:46.707Z,31.90
2023-01-10T19:35:37.959Z,32.30
2023-01-10T19:38:27.039Z,37.47
2023-01-10T19:41:16.491Z,35.13
2023-01-10T19:44:07.836Z,34.73
2023-01-10T19:46:57.053Z,34.97
2023-01-10T19:49:49.062Z,34.37
2023-01-10T19:52:38.241Z,33.07
2023-01-10T19:55:28.518Z,30.97
2023-01-10T19:58:17.435Z,34.27
2023-01-10T20:01:11.034Z,35.53
2023-01-10T20:04:01.635Z,35.67
2023-01-10T20:06:54.018Z,35.67
2023-01-10T20:09:42.966Z,34.23
2023-01-10T20:12:32.479Z,33.37
2023-01-10T20:15:21.643Z,38.10
2023-01-10T20:18:10.470Z,35.47
2023-01-10T20:20:59.377Z,37.10
2023-01-10T20:23:50.054Z,36.57
2023-01-10T20:26:39.294Z,37.50
2023-01-10T20:29:28.290Z,37.40
2023-01-10T20:32:17.386Z,37.00
2023-01-10T20:35:07.404Z,38.00
2023-01-10T20:37:56.461Z,35.60
2023-01-10T20:40:48.639Z,37.60
2023-01-10T20:43:38.258Z,38.40
2023-01-10T20:46:28.851Z,40.90
2023-01-10T20:49:18.572Z,46.40
2023-01-10T20:52:07.583Z,44.90
2023-01-10T20:54:56.513Z,50.23
2023-01-10T20:57:47.461Z,53.83
2023-01-10T21:00:37.055Z,56.53
2023-01-10T21:03:26.137Z,61.43
2023-01-10T21:06:16.483Z,69.27
2023-01-10T21:09:08.789Z,70.03
2023-01-10T21:12:10.659Z,69.07
2023-01-10T21:15:17.426Z,73.70
2023-01-10T21:18:07.116Z,70.77
2023-01-10T21:20:57.899Z,89.07
2023-01-10T21:23:46.751Z,73.17
2023-01-10T21:26:35.583Z,72.53
2023-01-10T21:29:24.422Z,77.17
2023-01-10T21:32:14.615Z,64.00
2023-01-10T21:35:03.460Z,67.97
2023-01-10T21:37:52.244Z,66.97
2023-01-10T21:40:41.118Z,66.63
2023-01-10T21:43:32.164Z,65.10
2023-01-10T21:46:20.949Z,61.17
2023-01-10T21:49:11.229Z,61.17
2023-01-10T21:52:00.107Z,60.23
2023-01-10T21:54:48.805Z,63.80
2023-01-10T21:57:39.498Z,62.33
2023-01-10T22:00:28.336Z,56.93
2023-01-10T22:03:17.095Z,52.47
2023-01-10T22:06:07.886Z,50.97
2023-01-10T22:08:56.758Z,51.63
2023-01-10T22:11:46.209Z,56.90
2023-01-10T22:14:35.167Z,54.90
2023-01-10T22:17:24.095Z,51.03
2023-01-10T22:20:14.361Z,51.60
2023-01-10T22:23:04.722Z,50.77
2023-01-10T22:26:00.405Z,49.73
2023-01-10T22:28:49.302Z,54.17
2023-01-10T22:31:38.199Z,55.13
2023-01-10T22:34:27.028Z,58.10
2023-01-10T22:37:17.232Z,61.37
2023-01-10T22:40:08.822Z,61.07
2023-01-10T22:42:57.656Z,56.33
2023-01-10T22:45:46.451Z,54.67
2023-01-10T22:48:36.862Z,60.33
2023-01-10T22:51:27.783Z,52.47
2023-01-10T22:54:16.843Z,52.03
2023-01-10T22:57:10.065Z,46.70
2023-01-10T22:59:58.927Z,54.87
2023-01-10T23:02:48.294Z,48.10
2023-01-10T23:05:37.062Z,43.13
2023-01-10T23:08:29.334Z,49.33
2023-01-10T23:11:20.336Z,47.13
2023-01-10T23:14:10.514Z,44.17
2023-01-10T23:16:59.470Z,47.70
2023-01-10T23:19:48.526Z,48.17
2023-01-10T23:22:37.261Z,45.23
2023-01-10T23:25:26.135Z,49.83
2023-01-10T23:28:14.882Z,50.00
2023-01-10T23:31:05.604Z,50.77
2023-01-10T23:33:54.760Z,56.17
2023-01-10T23:36:43.792Z,58.90
2023-01-10T23:39:32.591Z,61.70
2023-01-10T23:42:21.362Z,63.37
2023-01-10T23:45:11.210Z,63.30
2023-01-10T23:48:02.156Z,75.40
2023-01-10T23:50:51.740Z,70.87
2023-01-10T23:53:40.653Z,65.70
2023-01-10T23:56:29.661Z,61.97
2023-01-10T23:59:18.894Z,69.10
